Time;durP1;ratioP1;P1;durP2;ratioP2;P2;SDS_P1;SDS_P2;PMS_P1;PMS_P2;Temp;Humidity;BMP_temperature;BMP_pressure;BME280_temperature;BME280_humidity;BME280_pressure;Samples;Min_cycle;Max_cycle;Signal;HPM_P1;HPM_P2
2022/11/17 00:00:23;;;;;;;28.30;15.30;;;8.50;99.90;;;;;;5006478;28;20034;-77
2022/11/17 00:02:48;;;;;;;27.75;15.85;;;8.80;99.90;;;;;;4994722;28;20070;-77
2022/11/17 00:05:14;;;;;;;20.17;11.07;;;8.50;99.90;;;;;;4994803;28;20029;-77
2022/11/17 00:07:42;;;;;;;23.02;12.25;;;8.50;99.90;;;;;;4994757;28;20205;-77
2022/11/17 00:10:07;;;;;;;24.75;14.45;;;8.80;99.90;;;;;;4994569;28;20045;-77
2022/11/17 00:15:17;;;;;;;19.77;11.07;;;8.50;99.90;;;;;;4994573;28;20064;-77
2022/11/17 00:17:46;;;;;;;30.05;14.52;;;8.50;99.90;;;;;;4994621;28;20147;-77
2022/11/17 00:22:56;;;;;;;22.77;11.70;;;8.60;99.90;;;;;;4994329;28;20041;-77
2022/11/17 00:25:22;;;;;;;25.52;16.63;;;8.90;99.90;;;;;;4994468;28;20030;-77
2022/11/17 00:27:47;;;;;;;24.50;13.60;;;8.60;99.90;;;;;;4994346;28;20022;-77
2022/11/17 00:34:03;;;;;;;28.60;16.77;;;8.70;99.90;;;;;;4994363;28;20366;-77
2022/11/17 00:35:52;;;;;;;22.30;13.27;;;9.00;99.90;;;;;;4994332;28;20033;-77
2022/11/17 00:38:18;;;;;;;27.67;15.20;;;8.70;99.90;;;;;;4994437;28;20033;-77
2022/11/17 00:40:43;;;;;;;22.55;13.93;;;8.90;99.90;;;;;;4994211;28;20022;-77
2022/11/17 00:43:09;;;;;;;26.35;16.00;;;8.70;99.90;;;;;;4993949;28;20096;-77
2022/11/17 00:45:34;;;;;;;25.92;14.88;;;8.90;99.90;;;;;;4993942;28;20106;-77
2022/11/17 00:48:00;;;;;;;21.70;13.55;;;8.90;99.90;;;;;;4993647;28;20397;-77
2022/11/17 00:50:25;;;;;;;22.70;12.80;;;9.00;99.90;;;;;;4993981;28;20022;-77
2022/11/17 00:52:51;;;;;;;18.10;9.93;;;8.80;99.90;;;;;;4994011;28;20054;-77
2022/11/17 00:55:17;;;;;;;22.20;14.32;;;8.80;99.90;;;;;;4993831;28;20024;-77
2022/11/17 00:57:42;;;;;;;19.85;11.07;;;9.00;99.90;;;;;;4993867;28;20018;-77
2022/11/17 01:00:08;;;;;;;23.20;15.70;;;8.80;99.90;;;;;;4993725;28;20061;-77
2022/11/17 01:02:34;;;;;;;16.65;10.27;;;8.80;99.90;;;;;;4993815;28;20030;-77
2022/11/17 01:04:59;;;;;;;22.70;11.85;;;9.00;99.90;;;;;;4993906;28;20026;-77
2022/11/17 01:07:25;;;;;;;18.90;10.65;;;9.20;99.90;;;;;;4993651;28;20076;-77
2022/11/17 01:09:51;;;;;;;19.75;9.75;;;9.30;99.90;;;;;;4993730;28;20050;-77
2022/11/17 01:12:16;;;;;;;20.40;13.77;;;9.00;99.90;;;;;;4993490;28;20353;-77
2022/11/17 01:14:42;;;;;;;20.67;11.70;;;9.20;99.90;;;;;;4993514;28;20030;-77
2022/11/17 01:17:07;;;;;;;17.55;10.90;;;9.30;99.90;;;;;;4993343;28;20046;-77
2022/11/17 01:19:33;;;;;;;20.35;13.95;;;8.90;99.90;;;;;;4993350;28;20023;-77
2022/11/17 01:21:59;;;;;;;22.52;12.85;;;9.20;99.90;;;;;;4993726;28;20042;-77
2022/11/17 01:24:24;;;;;;;21.42;14.07;;;9.00;99.90;;;;;;4993516;28;20026;-77
2022/11/17 01:26:50;;;;;;;19.55;11.73;;;9.10;99.90;;;;;;4993466;28;20551;-77
2022/11/17 01:29:16;;;;;;;19.58;10.32;;;9.30;99.90;;;;;;4993510;28;20022;-77
2022/11/17 01:31:44;;;;;;;22.13;13.40;;;9.40;99.90;;;;;;4993732;28;20087;-77
2022/11/17 01:34:10;;;;;;;21.70;12.85;;;8.90;99.90;;;;;;4993265;28;20061;-77
2022/11/17 01:39:25;;;;;;;16.40;9.68;;;8.90;99.90;;;;;;4993706;28;20081;-77
2022/11/17 01:41:52;;;;;;;20.73;12.43;;;8.90;99.90;;;;;;4993413;28;20040;-77
2022/11/17 01:44:55;;;;;;;20.85;11.57;;;8.80;99.90;;;;;;4993230;28;20031;-77
2022/11/17 01:47:23;;;;;;;14.57;9.85;;;8.60;99.90;;;;;;4993244;28;20039;-77
2022/11/17 01:49:53;;;;;;;18.33;9.23;;;9.40;99.90;;;;;;4993168;28;20018;-77
2022/11/17 01:52:18;;;;;;;26.23;14.65;;;8.70;99.90;;;;;;5012737;28;20037;-77
2022/11/17 01:54:47;;;;;;;19.80;13.90;;;8.60;99.90;;;;;;5012918;28;20038;-77
2022/11/17 01:57:21;;;;;;;25.20;15.15;;;8.30;99.90;;;;;;5012930;28;20145;-77
2022/11/17 01:59:59;;;;;;;19.23;11.50;;;8.80;99.90;;;;;;5014171;28;20018;-77
2022/11/17 02:02:26;;;;;;;19.23;12.55;;;8.10;99.90;;;;;;5016778;28;20485;-77
2022/11/17 02:05:20;;;;;;;20.60;12.60;;;8.10;99.90;;;;;;5015405;28;20041;-77
2022/11/17 02:07:48;;;;;;;19.00;13.35;;;9.60;99.90;;;;;;5002477;28;20050;-77
2022/11/17 02:10:14;;;;;;;21.33;12.63;;;9.40;99.90;;;;;;5006742;28;20065;-77
2022/11/17 02:12:41;;;;;;;20.27;14.45;;;9.10;99.90;;;;;;5010617;28;20065;-77
2022/11/17 02:15:07;;;;;;;18.42;11.38;;;8.00;99.90;;;;;;5016558;28;20030;-77
2022/11/17 02:17:41;;;;;;;23.40;14.35;;;8.10;99.90;;;;;;5016718;28;20022;-77
2022/11/17 02:20:33;;;;;;;19.05;11.90;;;9.10;99.90;;;;;;5016469;28;20519;-77
2022/11/17 02:23:11;;;;;;;17.90;10.18;;;8.10;99.90;;;;;;5016677;28;20030;-77
2022/11/17 02:26:14;;;;;;;19.52;14.55;;;8.90;99.90;;;;;;4997048;28;20031;-77
2022/11/17 02:29:01;;;;;;;22.23;14.15;;;8.80;99.90;;;;;;4996918;28;20031;-77
2022/11/17 02:32:00;;;;;;;18.63;12.63;;;8.10;99.90;;;;;;4997071;28;20054;-77
2022/11/17 02:34:37;;;;;;;21.40;12.35;;;8.80;99.90;;;;;;4997210;28;20023;-77
2022/11/17 02:37:09;;;;;;;23.95;15.35;;;8.50;99.90;;;;;;4997011;28;20109;-77
2022/11/17 02:39:45;;;;;;;19.60;11.73;;;8.60;99.90;;;;;;4997568;28;20030;-78
2022/11/17 02:44:02;;;;;;;23.35;13.55;;;8.10;99.90;;;;;;4997404;28;20374;-78
2022/11/17 02:45:14;;;;;;;22.45;13.43;;;8.10;99.90;;;;;;4997381;28;20044;-77
2022/11/17 02:47:43;;;;;;;14.60;9.23;;;8.30;99.90;;;;;;4996779;28;20105;-77
2022/11/17 02:50:10;;;;;;;22.33;12.77;;;8.10;99.90;;;;;;4996668;28;20022;-77
2022/11/17 02:52:36;;;;;;;22.75;12.70;;;8.10;99.90;;;;;;4996736;28;20084;-77
2022/11/17 02:55:08;;;;;;;22.30;13.02;;;8.50;99.90;;;;;;4996636;28;20034;-77
2022/11/17 02:57:36;;;;;;;21.77;12.82;;;8.40;99.90;;;;;;4996401;28;20023;-77
2022/11/17 03:00:15;;;;;;;20.25;10.93;;;8.40;99.90;;;;;;4996773;28;20018;-77
2022/11/17 03:03:01;;;;;;;20.38;11.75;;;8.30;99.90;;;;;;4996741;28;20030;-78
2022/11/17 03:05:48;;;;;;;20.20;11.63;;;8.40;99.90;;;;;;5015289;28;20037;-78
2022/11/17 03:08:43;;;;;;;17.83;11.05;;;8.20;99.90;;;;;;5016741;28;20500;-78
2022/11/17 03:11:10;;;;;;;18.17;10.30;;;8.50;99.90;;;;;;5015635;28;20544;-78
2022/11/17 03:14:05;;;;;;;18.35;11.13;;;8.30;99.90;;;;;;5016148;28;20022;-77
2022/11/17 03:16:50;;;;;;;21.92;12.68;;;8.10;99.90;;;;;;4999686;28;20527;-78
2022/11/17 03:19:34;;;;;;;17.40;11.23;;;8.20;99.90;;;;;;4996925;28;20482;-78
2022/11/17 03:22:20;;;;;;;22.13;14.30;;;8.10;99.90;;;;;;5027437;28;20125;-78
2022/11/17 03:24:49;;;;;;;12.48;7.78;;;8.40;99.90;;;;;;5016344;28;20476;-78
2022/11/17 03:27:32;;;;;;;19.17;11.30;;;8.30;99.90;;;;;;5016436;28;20371;-78
2022/11/17 03:30:01;;;;;;;0.90;0.90;;;8.00;99.90;;;;;;5015895;28;20029;-77
2022/11/17 03:32:32;;;;;;;15.98;8.80;;;7.90;99.90;;;;;;5015775;28;20421;-77
2022/11/17 03:35:03;;;;;;;18.10;10.20;;;8.00;99.90;;;;;;5015732;28;20110;-78
2022/11/17 03:37:32;;;;;;;14.95;9.52;;;8.40;99.90;;;;;;5015460;28;20108;-77
2022/11/17 03:40:03;;;;;;;15.15;9.07;;;8.50;99.90;;;;;;5015490;28;20022;-77
2022/11/17 03:42:33;;;;;;;15.63;10.63;;;8.60;99.90;;;;;;4998096;28;20035;-78
2022/11/17 03:45:24;;;;;;;19.55;12.18;;;8.30;99.90;;;;;;5015422;28;20022;-77
2022/11/17 03:47:54;;;;;;;16.63;9.90;;;8.60;99.90;;;;;;4987951;28;20046;-77
2022/11/17 03:50:51;;;;;;;19.58;11.10;;;8.70;99.90;;;;;;4995546;28;20416;-77
2022/11/17 03:53:17;;;;;;;19.20;11.75;;;8.60;99.90;;;;;;4992290;28;20552;-77
2022/11/17 03:55:54;;;;;;;15.27;8.93;;;7.90;99.90;;;;;;4999324;28;20101;-77
2022/11/17 03:58:23;;;;;;;17.70;9.05;;;8.00;99.90;;;;;;5015350;28;20469;-77
2022/11/17 04:00:51;;;;;;;15.15;8.32;;;7.90;99.90;;;;;;4995473;28;20034;-77
2022/11/17 04:03:17;;;;;;;14.65;8.23;;;8.70;99.90;;;;;;4995633;28;20466;-78
2022/11/17 04:05:42;;;;;;;13.90;8.10;;;8.50;99.90;;;;;;5014542;28;20029;-77
2022/11/17 04:08:08;;;;;;;0.40;0.40;;;8.00;99.90;;;;;;5015317;28;20534;-78
2022/11/17 04:15:55;;;;;;;0.00;0.00;;;8.10;99.90;;;;;;5015269;28;20030;-77
2022/11/17 04:16:03;;;;;;;20.48;13.15;;;8.00;99.90;;;;;;4995576;28;20061;-77
2022/11/17 04:18:29;;;;;;;15.63;7.90;;;8.00;99.90;;;;;;4995553;28;20080;-77
2022/11/17 04:20:56;;;;;;;12.57;7.85;;;8.10;99.90;;;;;;5006334;28;20105;-78
2022/11/17 04:23:23;;;;;;;0.00;0.00;;;8.00;99.90;;;;;;5009481;28;20042;-78
2022/11/17 04:28:39;;;;;;;0.32;0.32;;;8.70;99.90;;;;;;4996064;28;20041;-78
2022/11/17 04:31:28;;;;;;;12.13;6.80;;;8.40;99.90;;;;;;4995356;28;20018;-77
2022/11/17 04:33:55;;;;;;;13.52;9.45;;;8.70;99.90;;;;;;4995473;28;20034;-78
2022/11/17 04:36:24;;;;;;;12.20;8.05;;;7.90;99.90;;;;;;4995084;28;20117;-78
2022/11/17 04:38:51;;;;;;;14.27;9.48;;;8.00;99.90;;;;;;4994732;28;20037;-78
2022/11/17 04:44:05;;;;;;;11.02;6.95;;;8.90;99.90;;;;;;4995049;28;20496;-78
2022/11/17 04:46:32;;;;;;;12.40;6.97;;;8.50;99.90;;;;;;4994904;28;20022;-77
2022/11/17 04:48:58;;;;;;;10.23;7.03;;;8.40;99.90;;;;;;4994495;28;20058;-77
2022/11/17 04:51:25;;;;;;;15.00;10.13;;;8.80;99.90;;;;;;4994609;28;20105;-78
2022/11/17 04:53:51;;;;;;;9.95;7.85;;;8.00;99.90;;;;;;4994789;28;20034;-77
2022/11/17 04:56:18;;;;;;;12.73;8.45;;;7.90;99.90;;;;;;4995005;28;20393;-78
2022/11/17 04:58:44;;;;;;;10.98;5.78;;;8.80;99.90;;;;;;4994498;28;20081;-77
2022/11/17 05:01:13;;;;;;;12.27;7.45;;;8.10;99.90;;;;;;4994576;28;20034;-77
2022/11/17 05:03:49;;;;;;;9.73;7.15;;;8.60;99.90;;;;;;4996990;28;20084;-77
2022/11/17 05:06:23;;;;;;;12.80;7.50;;;8.50;99.90;;;;;;5009588;28;20030;-78
2022/11/17 05:08:50;;;;;;;11.65;8.70;;;8.70;99.90;;;;;;4998008;28;20458;-77
2022/11/17 05:14:02;;;;;;;10.13;5.85;;;8.80;99.90;;;;;;5003314;28;20045;-78
2022/11/17 05:19:16;;;;;;;10.73;6.63;;;7.90;99.90;;;;;;5004430;28;20106;-77
2022/11/17 05:21:41;;;;;;;11.23;7.15;;;8.70;99.90;;;;;;4994114;28;20033;-78
2022/11/17 05:24:07;;;;;;;10.60;6.85;;;7.80;99.90;;;;;;4994443;28;20034;-77
2022/11/17 05:26:35;;;;;;;10.38;7.18;;;8.30;99.90;;;;;;5011397;28;20088;-77
2022/11/17 05:29:03;;;;;;;12.32;7.80;;;7.90;99.90;;;;;;5014248;28;20799;-78
2022/11/17 05:31:30;;;;;;;12.73;6.85;;;7.60;99.90;;;;;;5013636;28;20029;-77
2022/11/17 05:33:56;;;;;;;10.38;7.57;;;7.80;99.90;;;;;;5013594;28;20048;-77
2022/11/17 05:36:23;;;;;;;12.13;6.97;;;8.80;99.90;;;;;;5013355;28;20112;-77
2022/11/17 05:38:49;;;;;;;11.43;8.73;;;9.00;99.90;;;;;;4999271;28;20130;-77
2022/11/17 05:41:16;;;;;;;10.13;6.53;;;7.80;99.90;;;;;;4998165;28;20022;-77
2022/11/17 05:43:42;;;;;;;9.63;5.45;;;7.80;99.90;;;;;;4994078;28;20030;-77
2022/11/17 05:46:08;;;;;;;10.02;6.90;;;7.80;99.90;;;;;;4993671;28;20027;-77
2022/11/17 05:48:34;;;;;;;14.23;7.28;;;7.60;99.90;;;;;;4993725;28;20022;-77
2022/11/17 05:51:00;;;;;;;10.02;7.45;;;8.30;99.90;;;;;;4993653;28;20022;-77
2022/11/17 05:53:27;;;;;;;11.32;8.18;;;7.80;99.90;;;;;;4994048;28;20474;-77
2022/11/17 05:56:05;;;;;;;9.02;5.70;;;8.20;99.90;;;;;;4993668;28;20037;-77
2022/11/17 05:58:33;;;;;;;10.07;6.82;;;7.70;99.90;;;;;;4996805;28;20059;-77
2022/11/17 06:00:59;;;;;;;9.50;6.38;;;8.70;99.90;;;;;;5013450;28;20010;-77
2022/11/17 06:03:34;;;;;;;10.55;6.20;;;8.70;99.90;;;;;;4996158;28;20030;-77
2022/11/17 06:05:59;;;;;;;10.30;6.80;;;8.30;99.90;;;;;;4994497;28;20029;-78
2022/11/17 06:08:27;;;;;;;10.57;6.75;;;8.30;99.90;;;;;;4996854;28;20022;-78
2022/11/17 06:10:53;;;;;;;11.75;7.78;;;8.80;99.90;;;;;;5013583;28;20453;-77
2022/11/17 06:13:24;;;;;;;11.00;8.07;;;7.90;99.90;;;;;;5013346;28;20037;-77
2022/11/17 06:15:51;;;;;;;7.65;5.53;;;8.90;99.90;;;;;;5012666;28;20560;-77
2022/11/17 06:18:18;;;;;;;8.02;6.40;;;7.60;99.90;;;;;;5013504;28;20034;-78
2022/11/17 06:20:48;;;;;;;8.10;5.82;;;7.60;99.90;;;;;;5012985;28;20029;-77
2022/11/17 06:23:16;;;;;;;8.68;5.65;;;8.90;99.90;;;;;;5013357;28;20026;-77
2022/11/17 06:25:43;;;;;;;6.57;4.78;;;8.00;99.90;;;;;;5013429;28;20385;-77
2022/11/17 06:28:12;;;;;;;7.60;5.00;;;7.70;99.90;;;;;;5013617;28;20533;-78
2022/11/17 06:30:38;;;;;;;8.07;5.63;;;7.70;99.90;;;;;;5013949;28;20018;-78
2022/11/17 06:33:07;;;;;;;5.95;5.28;;;7.70;99.90;;;;;;5012538;28;20453;-77
2022/11/17 06:35:34;;;;;;;8.45;6.35;;;8.40;99.90;;;;;;5012623;28;20400;-77
2022/11/17 06:38:00;;;;;;;7.80;5.85;;;7.50;99.90;;;;;;5012465;28;20029;-77
2022/11/17 06:40:26;;;;;;;8.07;5.05;;;7.30;99.90;;;;;;5012555;28;20022;-77
2022/11/17 06:43:08;;;;;;;8.07;5.85;;;7.10;99.90;;;;;;5012436;28;20029;-77
2022/11/17 06:45:38;;;;;;;7.95;6.20;;;7.10;99.90;;;;;;5013672;28;20018;-77
2022/11/17 06:48:05;;;;;;;8.10;5.40;;;7.60;99.90;;;;;;5016223;28;20021;-77
2022/11/17 06:50:32;;;;;;;7.90;5.40;;;8.10;99.90;;;;;;5016052;28;20029;-77
2022/11/17 06:52:59;;;;;;;8.35;6.47;;;7.10;99.90;;;;;;5015376;28;20435;-77
2022/11/17 06:55:25;;;;;;;6.80;4.93;;;7.40;99.90;;;;;;5015479;28;20028;-77
2022/11/17 06:57:51;;;;;;;7.10;4.88;;;7.40;99.90;;;;;;5015357;28;20014;-77
2022/11/17 07:00:17;;;;;;;7.13;5.90;;;7.20;99.90;;;;;;5015614;28;20022;-77
2022/11/17 07:02:43;;;;;;;5.82;4.63;;;7.50;99.90;;;;;;5015452;28;20022;-77
2022/11/17 07:05:08;;;;;;;8.27;3.88;;;7.30;99.90;;;;;;4996141;28;20401;-77
2022/11/17 07:07:34;;;;;;;7.85;5.72;;;7.30;99.90;;;;;;4996078;28;20027;-77
2022/11/17 07:10:00;;;;;;;7.90;5.10;;;7.10;99.90;;;;;;4996444;28;20027;-77
2022/11/17 07:12:25;;;;;;;9.20;5.95;;;7.30;99.90;;;;;;4996370;28;20104;-77
2022/11/17 07:14:51;;;;;;;7.22;5.80;;;8.40;99.90;;;;;;4996102;28;20088;-77
2022/11/17 07:17:16;;;;;;;8.93;5.43;;;8.80;99.90;;;;;;4995751;28;20049;-77
2022/11/17 07:19:42;;;;;;;8.18;7.32;;;8.00;99.90;;;;;;4995774;28;20022;-77
2022/11/17 07:22:08;;;;;;;7.78;5.82;;;7.30;99.90;;;;;;5035450;28;20132;-78
2022/11/17 07:24:33;;;;;;;8.18;6.40;;;7.20;99.90;;;;;;5019376;28;20056;-77
2022/11/17 07:26:59;;;;;;;6.10;4.63;;;7.20;99.90;;;;;;4995754;28;20029;-77
2022/11/17 07:29:24;;;;;;;7.60;5.03;;;7.10;99.90;;;;;;4995848;28;20026;-77
2022/11/17 07:31:50;;;;;;;9.13;6.45;;;8.90;99.90;;;;;;4995626;28;20049;-77
2022/11/17 07:34:15;;;;;;;8.93;6.93;;;7.80;99.90;;;;;;4995516;28;20022;-77
2022/11/17 07:36:41;;;;;;;7.75;6.32;;;8.40;99.90;;;;;;5000432;28;20063;-77
2022/11/17 07:39:07;;;;;;;7.53;5.78;;;8.50;99.90;;;;;;4999689;28;20110;-77
2022/11/17 07:41:32;;;;;;;6.88;4.85;;;8.70;99.90;;;;;;5001821;28;20018;-77
2022/11/17 07:43:58;;;;;;;8.20;5.60;;;8.70;99.90;;;;;;5001843;28;20096;-77
2022/11/17 07:46:24;;;;;;;10.00;6.85;;;7.60;99.90;;;;;;5000661;28;20033;-77
2022/11/17 07:48:52;;;;;;;9.73;6.50;;;7.30;99.90;;;;;;5000917;28;20019;-77
2022/11/17 07:51:25;;;;;;;6.35;4.75;;;7.90;99.90;;;;;;4996380;28;20073;-77
2022/11/17 07:53:51;;;;;;;9.13;6.63;;;8.60;99.90;;;;;;4998189;28;20445;-77
2022/11/17 07:56:16;;;;;;;6.82;4.85;;;7.00;99.90;;;;;;4997083;28;20026;-77
2022/11/17 07:58:42;;;;;;;7.97;5.75;;;6.90;99.90;;;;;;4995569;28;20038;-77
2022/11/17 08:01:13;;;;;;;9.20;7.85;;;7.00;99.90;;;;;;4998835;28;20018;-77
2022/11/17 08:03:38;;;;;;;8.85;7.07;;;8.30;99.90;;;;;;5000332;28;20031;-77
2022/11/17 08:06:06;;;;;;;7.88;5.32;;;8.40;99.90;;;;;;4996635;28;20010;-77
2022/11/17 08:08:31;;;;;;;6.13;4.90;;;6.90;99.90;;;;;;4996254;28;20080;-77
2022/11/17 08:11:02;;;;;;;5.93;4.57;;;7.00;99.90;;;;;;5014695;28;20018;-77
2022/11/17 08:13:28;;;;;;;8.32;6.40;;;7.20;99.90;;;;;;5006880;28;20029;-77
2022/11/17 08:15:57;;;;;;;9.45;6.88;;;7.10;99.90;;;;;;5008876;28;20050;-77
2022/11/17 08:18:24;;;;;;;10.20;6.68;;;7.30;99.90;;;;;;5014590;28;20022;-77
2022/11/17 08:20:49;;;;;;;7.53;6.15;;;7.20;99.90;;;;;;5014109;28;20105;-77
2022/11/17 08:23:15;;;;;;;7.32;4.93;;;7.70;99.90;;;;;;5005834;28;20117;-77
2022/11/17 08:25:41;;;;;;;7.28;5.45;;;7.70;99.90;;;;;;4997318;28;20046;-77
2022/11/17 08:28:06;;;;;;;6.45;4.68;;;7.80;99.90;;;;;;4994513;28;20081;-77
2022/11/17 08:30:35;;;;;;;7.60;5.25;;;7.30;99.90;;;;;;4994527;28;20022;-77
2022/11/17 08:33:01;;;;;;;6.88;5.43;;;7.30;99.90;;;;;;4994488;28;20034;-77
2022/11/17 08:35:27;;;;;;;7.18;5.25;;;7.30;99.90;;;;;;5004451;28;20041;-77
2022/11/17 08:37:53;;;;;;;4.95;3.83;;;7.70;99.90;;;;;;5013932;28;20048;-77
2022/11/17 08:40:19;;;;;;;7.55;5.80;;;7.70;99.90;;;;;;5014026;28;20457;-77
2022/11/17 08:42:45;;;;;;;6.55;5.22;;;7.70;99.90;;;;;;5013958;28;20018;-77
2022/11/17 08:45:12;;;;;;;5.32;3.85;;;7.60;99.90;;;;;;5013280;28;20073;-77
2022/11/17 08:47:38;;;;;;;8.00;6.10;;;7.20;99.90;;;;;;5013217;28;20093;-77
2022/11/17 08:50:07;;;;;;;6.85;5.03;;;7.30;99.90;;;;;;5012885;28;20151;-77
2022/11/17 08:52:32;;;;;;;6.53;4.18;;;7.90;99.90;;;;;;5012839;28;20108;-77
2022/11/17 08:54:58;;;;;;;4.38;3.50;;;7.20;99.90;;;;;;5013060;28;20157;-77
2022/11/17 08:57:23;;;;;;;7.75;5.93;;;7.30;99.90;;;;;;5013274;28;20640;-77
2022/11/17 08:59:49;;;;;;;5.88;4.38;;;7.30;99.90;;;;;;5013303;28;20087;-77
2022/11/17 09:02:15;;;;;;;4.88;4.05;;;7.50;99.90;;;;;;5009977;28;20033;-77
2022/11/17 09:04:41;;;;;;;0.00;0.00;;;7.30;99.90;;;;;;5003953;28;20044;-77
2022/11/17 09:07:07;;;;;;;0.10;0.10;;;7.60;99.90;;;;;;5009504;28;20022;-77
2022/11/17 09:09:33;;;;;;;0.28;0.20;;;7.90;99.90;;;;;;4993324;28;20027;-77
2022/11/17 09:11:59;;;;;;;0.20;0.20;;;8.00;99.90;;;;;;4993595;28;20081;-77
2022/11/17 09:14:25;;;;;;;0.08;0.08;;;7.60;99.90;;;;;;4993484;28;20125;-77
2022/11/17 09:16:51;;;;;;;0.17;0.17;;;8.00;99.90;;;;;;4993450;28;20088;-77
2022/11/17 09:19:17;;;;;;;0.00;0.00;;;7.40;99.90;;;;;;4999484;28;20022;-77
2022/11/17 09:21:43;;;;;;;0.00;0.00;;;8.00;99.90;;;;;;5019182;28;20029;-77
2022/11/17 09:24:09;;;;;;;0.00;0.00;;;7.80;99.90;;;;;;4994164;28;20136;-77
2022/11/17 09:26:39;;;;;;;0.00;0.00;;;8.00;99.90;;;;;;4992881;28;20875;-77
2022/11/17 09:29:06;;;;;;;0.00;0.00;;;7.60;99.90;;;;;;4994024;28;20492;-77
2022/11/17 09:31:32;;;;;;;5.43;4.28;;;8.00;99.90;;;;;;4994669;28;20473;-77
2022/11/17 09:33:57;;;;;;;5.82;4.15;;;7.70;99.90;;;;;;4995259;28;20030;-77
2022/11/17 09:36:23;;;;;;;4.95;3.85;;;7.50;99.90;;;;;;4993407;28;20030;-76
2022/11/17 09:38:49;;;;;;;5.75;4.20;;;8.00;99.90;;;;;;4993448;28;20015;-77
2022/11/17 09:41:15;;;;;;;6.45;4.82;;;7.60;99.90;;;;;;4993747;28;20057;-77
2022/11/17 09:44:04;;;;;;;7.55;6.35;;;7.60;99.90;;;;;;4993525;28;20061;-77
2022/11/17 09:47:03;;;;;;;6.50;4.38;;;7.70;99.90;;;;;;4993234;28;20034;-77
2022/11/17 09:49:55;;;;;;;5.60;3.80;;;7.60;99.90;;;;;;4993146;28;20409;-77
2022/11/17 09:52:40;;;;;;;0.10;0.10;;;;;;;;;;5002634;28;20022;-78
2022/11/17 09:55:23;;;;;;;0.00;0.00;;;8.10;99.90;;;;;;4993876;28;20093;-77
2022/11/17 09:58:02;;;;;;;0.70;0.70;;;8.20;99.90;;;;;;5011246;28;20052;-77
2022/11/17 10:00:30;;;;;;;0.20;0.20;;;7.60;99.90;;;;;;5014664;28;20117;-78
2022/11/17 10:02:56;;;;;;;0.75;0.75;;;8.10;99.90;;;;;;5008643;28;20023;-78
2022/11/17 10:05:31;;;;;;;0.00;0.00;;;8.20;99.90;;;;;;5013914;28;20628;-78
2022/11/17 10:08:07;;;;;;;0.00;0.00;;;7.70;99.90;;;;;;5009230;28;20068;-77
2022/11/17 10:10:42;;;;;;;0.30;0.28;;;7.70;99.90;;;;;;5005397;28;20030;-78
2022/11/17 10:13:36;;;;;;;0.10;0.10;;;8.30;99.90;;;;;;4994776;28;20062;-78
2022/11/17 10:16:06;;;;;;;5.55;3.20;;;7.90;99.90;;;;;;5003860;28;20045;-78
2022/11/17 10:18:37;;;;;;;7.90;4.57;;;8.30;99.90;;;;;;5011201;28;20097;-78
2022/11/17 10:21:05;;;;;;;6.30;4.13;;;7.90;99.90;;;;;;5017702;28;20026;-78
2022/11/17 10:23:39;;;;;;;4.32;3.22;;;8.20;99.90;;;;;;5009745;28;20061;-78
2022/11/17 10:26:11;;;;;;;5.05;4.00;;;8.20;99.90;;;;;;5000231;28;20027;-78
2022/11/17 10:28:36;;;;;;;5.55;3.75;;;8.40;99.90;;;;;;5001578;28;20465;-78
2022/11/17 10:31:11;;;;;;;6.60;4.35;;;7.80;99.90;;;;;;4999143;28;20033;-78
2022/11/17 10:33:48;;;;;;;6.63;4.03;;;8.40;99.90;;;;;;5018391;28;20025;-78
2022/11/17 10:36:25;;;;;;;6.95;4.70;;;8.10;99.90;;;;;;5024263;28;20081;-79
2022/11/17 10:38:54;;;;;;;8.40;4.20;;;8.40;99.90;;;;;;5014568;28;20064;-79
2022/11/17 10:41:27;;;;;;;6.88;4.38;;;8.30;99.90;;;;;;5008473;28;20602;-79
2022/11/17 10:44:01;;;;;;;5.78;4.10;;;8.10;99.90;;;;;;5015093;28;20046;-78
2022/11/17 10:46:31;;;;;;;5.80;4.03;;;7.90;99.90;;;;;;5017853;28;20084;-78
2022/11/17 10:48:59;;;;;;;5.75;4.40;;;8.50;99.90;;;;;;5016087;28;20062;-79
2022/11/17 10:51:27;;;;;;;6.28;4.57;;;8.10;99.90;;;;;;5019787;28;20516;-79
2022/11/17 10:54:20;;;;;;;5.88;4.60;;;8.40;99.90;;;;;;5001451;28;20030;-78
2022/11/17 10:56:53;;;;;;;8.00;4.90;;;7.90;99.90;;;;;;5002166;28;20035;-79
2022/11/17 10:59:32;;;;;;;4.30;3.53;;;8.60;99.90;;;;;;5022140;28;20025;-79
2022/11/17 11:02:33;;;;;;;0.00;0.00;;;7.80;99.90;;;;;;5020941;28;20034;-78
2022/11/17 11:05:10;;;;;;;4.90;3.53;;;8.30;99.90;;;;;;5021680;28;20029;-79
2022/11/17 11:07:36;;;;;;;5.85;4.15;;;8.60;99.90;;;;;;5023690;28;20469;-79
2022/11/17 11:10:11;;;;;;;4.97;3.47;;;8.70;99.90;;;;;;5019804;28;20530;-78
2022/11/17 11:12:55;;;;;;;5.03;2.80;;;8.30;99.90;;;;;;4999620;28;20547;-79
2022/11/17 11:15:28;;;;;;;6.35;4.80;;;8.20;99.90;;;;;;5013088;28;20032;-79
2022/11/17 11:17:54;;;;;;;4.57;3.70;;;8.10;99.90;;;;;;5014483;28;20022;-78
2022/11/17 11:20:32;;;;;;;5.47;4.30;;;8.60;99.90;;;;;;5017808;28;20503;-78
2022/11/17 11:23:13;;;;;;;6.15;5.15;;;9.10;99.90;;;;;;5018067;28;20030;-78
2022/11/17 11:25:54;;;;;;;5.70;3.80;;;9.10;99.90;;;;;;5003815;28;20105;-78
2022/11/17 11:28:53;;;;;;;5.88;3.75;;;8.60;99.90;;;;;;5003560;28;20057;-79
2022/11/17 11:31:35;;;;;;;7.32;4.03;;;9.00;99.90;;;;;;4997955;28;20477;-78
2022/11/17 11:34:28;;;;;;;6.82;4.93;;;9.20;99.90;;;;;;5002404;28;20014;-78
2022/11/17 11:36:59;;;;;;;6.90;4.43;;;8.70;99.90;;;;;;5010341;28;20054;-79
2022/11/17 11:39:44;;;;;;;6.53;4.10;;;9.40;99.90;;;;;;4998494;28;20033;-79
2022/11/17 11:42:27;;;;;;;6.50;5.00;;;8.80;99.90;;;;;;4998851;28;20027;-79
2022/11/17 11:45:11;;;;;;;7.13;4.53;;;9.30;99.90;;;;;;5004775;28;20457;-78
2022/11/17 11:48:06;;;;;;;9.15;5.38;;;9.40;99.90;;;;;;5005514;28;20485;-78
2022/11/17 11:50:39;;;;;;;5.25;3.33;;;9.10;99.90;;;;;;5007163;28;20481;-78
2022/11/17 11:53:19;;;;;;;5.20;3.75;;;9.00;99.90;;;;;;5009990;28;20022;-79
2022/11/17 11:55:48;;;;;;;3.53;2.00;;;9.80;99.90;;;;;;5005471;28;20030;-79
2022/11/17 11:58:22;;;;;;;4.93;2.05;;;10.00;99.90;;;;;;5002637;28;20030;-79
2022/11/17 12:01:09;;;;;;;5.35;2.33;;;9.60;99.90;;;;;;4999377;28;20025;-79
2022/11/17 12:04:02;;;;;;;1.73;1.45;;;10.00;99.90;;;;;;4997534;28;20038;-79
2022/11/17 12:06:41;;;;;;;4.05;1.35;;;10.10;99.90;;;;;;5002781;28;20054;-79
2022/11/17 12:09:22;;;;;;;3.72;1.58;;;10.00;99.90;;;;;;5000165;28;20023;-79
2022/11/17 12:12:00;;;;;;;;;;;9.70;99.90;;;;;;5001571;28;20069;-79
2022/11/17 12:14:37;;;;;;;3.60;1.30;;;9.80;99.90;;;;;;5016201;28;19905;-78
2022/11/17 12:17:22;;;;;;;3.85;1.20;;;10.30;99.90;;;;;;5021476;28;20054;-79
2022/11/17 12:19:51;;;;;;;4.80;1.60;;;10.50;99.90;;;;;;5008357;28;20018;-79
2022/11/17 12:22:28;;;;;;;7.05;1.60;;;10.50;99.90;;;;;;5012422;28;20072;-79
2022/11/17 12:25:26;;;;;;;3.53;1.80;;;10.30;99.90;;;;;;5022721;28;20029;-79
2022/11/17 12:27:57;;;;;;;3.47;1.30;;;10.50;99.90;;;;;;5010337;28;20129;-79
2022/11/17 12:30:32;;;;;;;1.98;1.50;;;9.90;99.90;;;;;;5019984;28;20084;-79
2022/11/17 12:32:59;;;;;;;4.70;1.85;;;10.60;99.90;;;;;;5016933;28;20420;-79
2022/11/17 12:35:25;;;;;;;6.10;2.33;;;10.70;99.90;;;;;;5015728;28;20477;-79
2022/11/17 12:38:15;;;;;;;2.50;1.50;;;10.60;99.90;;;;;;5021092;28;20026;-79
2022/11/17 12:40:41;;;;;;;;;;;10.40;99.90;;;;;;5013825;28;20082;-79
2022/11/17 12:43:25;;;;;;;2.92;1.45;;;10.60;99.90;;;;;;5009155;28;20349;-80
2022/11/17 12:45:50;;;;;;;2.47;1.30;;;10.80;99.90;;;;;;5001141;28;20022;-79
2022/11/17 12:48:17;;;;;;;5.10;1.35;;;9.40;99.90;;;;;;5005722;28;20019;-80
2022/11/17 12:51:23;;;;;;;2.20;1.17;;;9.70;99.90;;;;;;5009785;28;20125;-80
2022/11/17 12:54:07;;;;;;;3.75;1.15;;;9.50;99.90;;;;;;5008661;28;20041;-80
2022/11/17 12:56:46;;;;;;;3.42;1.60;;;9.90;99.90;;;;;;5019366;28;20026;-80
2022/11/17 12:59:30;;;;;;;4.22;1.20;;;9.50;99.90;;;;;;5013401;28;20057;-79
2022/11/17 13:02:33;;;;;;;3.10;1.25;;;9.80;99.90;;;;;;5016687;28;20057;-79
2022/11/17 13:05:14;;;;;;;2.10;1.30;;;10.80;99.90;;;;;;5011132;28;20038;-80
2022/11/17 13:07:40;;;;;;;1.65;1.40;;;10.70;99.90;;;;;;4997739;28;20018;-79
2022/11/17 13:10:21;;;;;;;2.33;1.40;;;9.80;99.90;;;;;;4996360;28;20563;-79
2022/11/17 13:12:46;;;;;;;4.25;1.40;;;10.40;99.90;;;;;;5006936;28;20447;-79
2022/11/17 13:15:21;;;;;;;3.88;1.20;;;10.90;99.90;;;;;;5015441;28;20030;-79
2022/11/17 13:17:48;;;;;;;6.13;1.70;;;10.40;99.90;;;;;;5016385;28;20045;-79
2022/11/17 13:20:24;;;;;;;4.68;1.40;;;10.50;99.90;;;;;;5004826;28;20330;-79
2022/11/17 13:23:26;;;;;;;4.13;1.50;;;10.00;99.90;;;;;;5003140;28;20113;-79
2022/11/17 13:26:23;;;;;;;3.75;1.35;;;9.60;99.90;;;;;;5017618;28;20042;-80
2022/11/17 13:29:20;;;;;;;3.42;1.30;;;10.40;99.90;;;;;;5008580;28;20018;-79
2022/11/17 13:31:45;;;;;;;4.10;1.70;;;10.70;99.90;;;;;;4996383;28;20026;-79
2022/11/17 13:34:11;;;;;;;2.55;1.58;;;9.90;99.90;;;;;;5000811;28;20034;-79
2022/11/17 13:36:55;;;;;;;3.70;1.17;;;10.60;99.90;;;;;;4996806;28;20122;-79
2022/11/17 13:39:20;;;;;;;6.18;1.60;;;10.80;99.90;;;;;;5000207;28;20035;-80